sensor_id;sensor_type;location;lat;lon;timestamp;pressure;altitude;pressure_sealevel;temperature;humidity
8294;BME280;4185;41.506;24.938;2023-03-16T00:01:47;92334.50;;;6.60;73.20
8294;BME280;4185;41.506;24.938;2023-03-16T00:04:13;92333.00;;;6.65;73.96
8294;BME280;4185;41.506;24.938;2023-03-16T00:06:40;92330.81;;;6.69;73.20
8294;BME280;4185;41.506;24.938;2023-03-16T00:09:07;92333.28;;;6.67;73.51
8294;BME280;4185;41.506;24.938;2023-03-16T00:11:34;92330.31;;;6.65;73.51
8294;BME280;4185;41.506;24.938;2023-03-16T00:14:01;92328.84;;;6.64;73.75
8294;BME280;4185;41.506;24.938;2023-03-16T00:16:28;92328.13;;;6.63;73.75
8294;BME280;4185;41.506;24.938;2023-03-16T00:18:56;92331.06;;;6.65;73.98
8294;BME280;4185;41.506;24.938;2023-03-16T00:21:23;92329.38;;;6.68;73.86
8294;BME280;4185;41.506;24.938;2023-03-16T00:23:50;92333.78;;;6.71;74.00
8294;BME280;4185;41.506;24.938;2023-03-16T00:26:17;92333.03;;;6.70;74.04
8294;BME280;4185;41.506;24.938;2023-03-16T00:28:44;92327.88;;;6.67;74.30
8294;BME280;4185;41.506;24.938;2023-03-16T00:31:11;92332.56;;;6.66;74.52
8294;BME280;4185;41.506;24.938;2023-03-16T00:33:38;92324.94;;;6.70;73.74
8294;BME280;4185;41.506;24.938;2023-03-16T00:36:08;92322.97;;;6.71;73.96
8294;BME280;4185;41.506;24.938;2023-03-16T00:38:37;92333.50;;;6.63;74.76
8294;BME280;4185;41.506;24.938;2023-03-16T00:41:06;92331.53;;;6.58;74.93
8294;BME280;4185;41.506;24.938;2023-03-16T00:43:35;92337.41;;;6.57;75.35
8294;BME280;4185;41.506;24.938;2023-03-16T00:46:06;92335.47;;;6.57;75.32
8294;BME280;4185;41.506;24.938;2023-03-16T00:48:33;92333.28;;;6.61;74.80
8294;BME280;4185;41.506;24.938;2023-03-16T00:51:01;92339.38;;;6.56;75.50
8294;BME280;4185;41.506;24.938;2023-03-16T00:53:31;92331.28;;;6.45;75.75
8294;BME280;4185;41.506;24.938;2023-03-16T00:55:58;92343.75;;;6.37;75.16
8294;BME280;4185;41.506;24.938;2023-03-16T00:58:27;92336.88;;;6.36;75.39
8294;BME280;4185;41.506;24.938;2023-03-16T01:00:54;92334.91;;;6.31;76.08
8294;BME280;4185;41.506;24.938;2023-03-16T01:03:21;92338.13;;;6.35;76.20
8294;BME280;4185;41.506;24.938;2023-03-16T01:05:48;92335.19;;;6.39;75.78
8294;BME280;4185;41.506;24.938;2023-03-16T01:08:15;92330.25;;;6.32;76.04
8294;BME280;4185;41.506;24.938;2023-03-16T01:10:43;92334.88;;;6.20;76.10
8294;BME280;4185;41.506;24.938;2023-03-16T01:13:10;92336.34;;;6.15;75.74
8294;BME280;4185;41.506;24.938;2023-03-16T01:15:38;92332.38;;;6.11;76.08
8294;BME280;4185;41.506;24.938;2023-03-16T01:18:04;92334.34;;;6.05;75.76
8294;BME280;4185;41.506;24.938;2023-03-16T01:20:31;92341.16;;;6.00;76.01
8294;BME280;4185;41.506;24.938;2023-03-16T01:22:59;92343.63;;;6.04;75.60
8294;BME280;4185;41.506;24.938;2023-03-16T01:25:26;92342.69;;;6.07;75.56
8294;BME280;4185;41.506;24.938;2023-03-16T01:27:54;92341.44;;;6.08;75.65
8294;BME280;4185;41.506;24.938;2023-03-16T01:30:21;92334.53;;;5.96;75.63
8294;BME280;4185;41.506;24.938;2023-03-16T01:32:48;92336.22;;;5.88;76.15
8294;BME280;4185;41.506;24.938;2023-03-16T01:35:15;92337.22;;;5.96;76.34
8294;BME280;4185;41.506;24.938;2023-03-16T01:37:42;92339.41;;;5.92;77.32
8294;BME280;4185;41.506;24.938;2023-03-16T01:40:10;92336.00;;;5.91;77.01
8294;BME280;4185;41.506;24.938;2023-03-16T01:42:44;92333.53;;;5.88;77.27
8294;BME280;4185;41.506;24.938;2023-03-16T01:48:26;92348.88;;;5.82;77.01
8294;BME280;4185;41.506;24.938;2023-03-16T01:50:54;92344.22;;;5.77;76.66
8294;BME280;4185;41.506;24.938;2023-03-16T01:53:23;92348.63;;;5.74;77.68
8294;BME280;4185;41.506;24.938;2023-03-16T01:55:51;92345.94;;;5.74;77.75
8294;BME280;4185;41.506;24.938;2023-03-16T01:58:19;92348.41;;;5.78;77.54
8294;BME280;4185;41.506;24.938;2023-03-16T02:00:46;92345.69;;;5.78;76.79
8294;BME280;4185;41.506;24.938;2023-03-16T02:03:15;92334.88;;;5.72;76.69
8294;BME280;4185;41.506;24.938;2023-03-16T02:05:49;92352.81;;;5.81;76.84
8294;BME280;4185;41.506;24.938;2023-03-16T02:08:19;92353.78;;;5.78;77.00
8294;BME280;4185;41.506;24.938;2023-03-16T02:10:47;92360.63;;;5.79;77.57
8294;BME280;4185;41.506;24.938;2023-03-16T02:13:15;92367.50;;;5.80;77.50
8294;BME280;4185;41.506;24.938;2023-03-16T02:15:41;92366.03;;;5.79;77.22
8294;BME280;4185;41.506;24.938;2023-03-16T02:18:08;92361.38;;;5.79;77.16
8294;BME280;4185;41.506;24.938;2023-03-16T02:20:40;92352.28;;;5.77;77.22
8294;BME280;4185;41.506;24.938;2023-03-16T02:23:11;92363.56;;;5.75;77.84
8294;BME280;4185;41.506;24.938;2023-03-16T02:25:48;92367.44;;;5.69;77.95
8294;BME280;4185;41.506;24.938;2023-03-16T02:28:21;92368.09;;;5.58;78.83
8294;BME280;4185;41.506;24.938;2023-03-16T02:30:52;92368.84;;;5.59;78.68
8294;BME280;4185;41.506;24.938;2023-03-16T02:33:20;92366.63;;;5.57;78.34
8294;BME280;4185;41.506;24.938;2023-03-16T02:35:47;92367.38;;;5.58;78.92
8294;BME280;4185;41.506;24.938;2023-03-16T02:38:13;92362.22;;;5.60;78.08
8294;BME280;4185;41.506;24.938;2023-03-16T02:40:40;92374.97;;;5.59;78.59
8294;BME280;4185;41.506;24.938;2023-03-16T02:43:11;92372.34;;;5.65;78.45
8294;BME280;4185;41.506;24.938;2023-03-16T02:45:41;92367.38;;;5.58;78.46
8294;BME280;4185;41.506;24.938;2023-03-16T02:48:15;92369.16;;;5.66;78.29
8294;BME280;4185;41.506;24.938;2023-03-16T02:50:44;92372.59;;;5.72;78.23
8294;BME280;4185;41.506;24.938;2023-03-16T02:53:12;92368.19;;;5.69;77.72
8294;BME280;4185;41.506;24.938;2023-03-16T02:55:39;92369.38;;;5.63;78.04
8294;BME280;4185;41.506;24.938;2023-03-16T02:58:06;92371.53;;;5.59;79.17
8294;BME280;4185;41.506;24.938;2023-03-16T03:00:32;92373.72;;;5.55;79.01
8294;BME280;4185;41.506;24.938;2023-03-16T03:02:59;92373.47;;;5.53;79.06
8294;BME280;4185;41.506;24.938;2023-03-16T03:05:27;92375.47;;;5.63;78.91
8294;BME280;4185;41.506;24.938;2023-03-16T03:07:54;92381.59;;;5.64;79.21
8294;BME280;4185;41.506;24.938;2023-03-16T03:10:21;92378.91;;;5.64;79.26
8294;BME280;4185;41.506;24.938;2023-03-16T03:12:48;92387.00;;;5.64;78.88
8294;BME280;4185;41.506;24.938;2023-03-16T03:15:15;92382.84;;;5.63;79.69
8294;BME280;4185;41.506;24.938;2023-03-16T03:17:42;92391.13;;;5.59;79.27
8294;BME280;4185;41.506;24.938;2023-03-16T03:20:11;92394.81;;;5.62;79.62
8294;BME280;4185;41.506;24.938;2023-03-16T03:22:43;92389.44;;;5.62;78.78
8294;BME280;4185;41.506;24.938;2023-03-16T03:25:11;92380.88;;;5.63;79.29
8294;BME280;4185;41.506;24.938;2023-03-16T03:27:38;92391.19;;;5.65;79.44
8294;BME280;4185;41.506;24.938;2023-03-16T03:30:06;92392.38;;;5.64;79.70
8294;BME280;4185;41.506;24.938;2023-03-16T03:32:33;92396.31;;;5.63;78.80
8294;BME280;4185;41.506;24.938;2023-03-16T03:35:00;92388.94;;;5.58;79.33
8294;BME280;4185;41.506;24.938;2023-03-16T03:37:27;92397.50;;;5.56;79.52
8294;BME280;4185;41.506;24.938;2023-03-16T03:39:55;92397.94;;;5.55;79.94
8294;BME280;4185;41.506;24.938;2023-03-16T03:42:22;92397.72;;;5.53;79.89
8294;BME280;4185;41.506;24.938;2023-03-16T03:44:49;92397.72;;;5.53;80.01
8294;BME280;4185;41.506;24.938;2023-03-16T03:47:16;92395.25;;;5.55;80.35
8294;BME280;4185;41.506;24.938;2023-03-16T03:49:43;92401.59;;;5.52;80.19
8294;BME280;4185;41.506;24.938;2023-03-16T03:52:10;92399.13;;;5.43;79.95
8294;BME280;4185;41.506;24.938;2023-03-16T03:54:37;92409.88;;;5.43;81.11
8294;BME280;4185;41.506;24.938;2023-03-16T03:57:05;92406.19;;;5.40;81.28
8294;BME280;4185;41.506;24.938;2023-03-16T03:59:32;92404.50;;;5.43;80.82
8294;BME280;4185;41.506;24.938;2023-03-16T04:01:59;92409.88;;;5.43;80.90
8294;BME280;4185;41.506;24.938;2023-03-16T04:04:26;92404.22;;;5.41;81.11
8294;BME280;4185;41.506;24.938;2023-03-16T04:06:53;92410.31;;;5.36;81.21
8294;BME280;4185;41.506;24.938;2023-03-16T04:09:20;92414.75;;;5.39;81.42
8294;BME280;4185;41.506;24.938;2023-03-16T04:11:46;92422.34;;;5.40;81.15
8294;BME280;4185;41.506;24.938;2023-03-16T04:14:14;92415.47;;;5.39;81.19
8294;BME280;4185;41.506;24.938;2023-03-16T04:16:41;92419.91;;;5.42;81.49
8294;BME280;4185;41.506;24.938;2023-03-16T04:19:08;92426.25;;;5.39;81.52
8294;BME280;4185;41.506;24.938;2023-03-16T04:21:35;92428.47;;;5.41;81.41
8294;BME280;4185;41.506;24.938;2023-03-16T04:24:02;92429.94;;;5.42;80.89
8294;BME280;4185;41.506;24.938;2023-03-16T04:26:30;92436.00;;;5.37;81.71
8294;BME280;4185;41.506;24.938;2023-03-16T04:28:57;92439.66;;;5.34;81.38
8294;BME280;4185;41.506;24.938;2023-03-16T04:31:25;92430.63;;;5.37;81.50
8294;BME280;4185;41.506;24.938;2023-03-16T04:33:51;92431.59;;;5.34;81.18
8294;BME280;4185;41.506;24.938;2023-03-16T04:36:19;92433.66;;;5.19;81.47
8294;BME280;4185;41.506;24.938;2023-03-16T04:38:48;92431.88;;;5.10;82.36
8294;BME280;4185;41.506;24.938;2023-03-16T04:41:16;92439.78;;;5.19;81.66
8294;BME280;4185;41.506;24.938;2023-03-16T04:43:43;92439.25;;;5.15;80.96
8294;BME280;4185;41.506;24.938;2023-03-16T04:46:10;92444.44;;;5.19;80.78
8294;BME280;4185;41.506;24.938;2023-03-16T04:48:38;92453.97;;;5.20;80.90
8294;BME280;4185;41.506;24.938;2023-03-16T04:51:05;92453.50;;;5.21;80.76
8294;BME280;4185;41.506;24.938;2023-03-16T04:53:32;92463.00;;;5.17;80.04
8294;BME280;4185;41.506;24.938;2023-03-16T04:55:59;92462.25;;;5.16;81.31
8294;BME280;4185;41.506;24.938;2023-03-16T04:58:26;92464.72;;;5.14;80.96
8294;BME280;4185;41.506;24.938;2023-03-16T05:00:53;92463.97;;;5.14;80.60
8294;BME280;4185;41.506;24.938;2023-03-16T05:03:20;92472.31;;;5.16;81.16
8294;BME280;4185;41.506;24.938;2023-03-16T05:05:49;92471.34;;;5.19;80.68
8294;BME280;4185;41.506;24.938;2023-03-16T05:08:16;92482.31;;;5.15;80.61
8294;BME280;4185;41.506;24.938;2023-03-16T05:10:43;92479.16;;;5.17;80.79
8294;BME280;4185;41.506;24.938;2023-03-16T05:13:12;92482.13;;;5.19;80.74
8294;BME280;4185;41.506;24.938;2023-03-16T05:15:39;92483.09;;;5.21;80.86
8294;BME280;4185;41.506;24.938;2023-03-16T05:18:05;92478.94;;;5.20;80.21
8294;BME280;4185;41.506;24.938;2023-03-16T05:20:32;92483.06;;;5.16;80.61
8294;BME280;4185;41.506;24.938;2023-03-16T05:23:00;92490.59;;;5.12;80.19
8294;BME280;4185;41.506;24.938;2023-03-16T05:25:27;92495.63;;;4.98;81.10
8294;BME280;4185;41.506;24.938;2023-03-16T05:27:54;92493.41;;;4.97;81.00
8294;BME280;4185;41.506;24.938;2023-03-16T05:30:21;92500.78;;;5.02;81.39
8294;BME280;4185;41.506;24.938;2023-03-16T05:32:48;92496.88;;;5.03;80.64
8294;BME280;4185;41.506;24.938;2023-03-16T05:35:15;92504.47;;;5.05;81.41
8294;BME280;4185;41.506;24.938;2023-03-16T05:37:42;92502.25;;;5.03;81.14
8294;BME280;4185;41.506;24.938;2023-03-16T05:40:12;92507.09;;;4.99;80.99
8294;BME280;4185;41.506;24.938;2023-03-16T05:42:42;92495.28;;;4.91;81.65
8294;BME280;4185;41.506;24.938;2023-03-16T05:45:10;92508.81;;;4.96;81.07
8294;BME280;4185;41.506;24.938;2023-03-16T05:47:37;92519.84;;;4.98;81.51
8294;BME280;4185;41.506;24.938;2023-03-16T05:50:05;92515.94;;;4.99;80.75
8294;BME280;4185;41.506;24.938;2023-03-16T05:52:33;92515.84;;;4.94;80.66
8294;BME280;4185;41.506;24.938;2023-03-16T05:55:00;92520.50;;;4.93;81.27
8294;BME280;4185;41.506;24.938;2023-03-16T05:57:28;92524.41;;;4.92;81.00
8294;BME280;4185;41.506;24.938;2023-03-16T05:59:55;92535.91;;;4.93;81.38
8294;BME280;4185;41.506;24.938;2023-03-16T06:02:22;92532.00;;;4.94;81.54
8294;BME280;4185;41.506;24.938;2023-03-16T06:04:51;92535.91;;;4.93;81.84
8294;BME280;4185;41.506;24.938;2023-03-16T06:07:17;92533.69;;;4.91;82.11
8294;BME280;4185;41.506;24.938;2023-03-16T06:09:44;92539.34;;;4.93;82.08
8294;BME280;4185;41.506;24.938;2023-03-16T06:12:11;92543.50;;;4.94;81.58
8294;BME280;4185;41.506;24.938;2023-03-16T06:14:39;92541.09;;;4.96;81.77
8294;BME280;4185;41.506;24.938;2023-03-16T06:17:06;92549.44;;;4.98;82.24
8294;BME280;4185;41.506;24.938;2023-03-16T06:19:33;92542.16;;;5.05;82.14
8294;BME280;4185;41.506;24.938;2023-03-16T06:22:00;92551.50;;;5.09;82.24
8294;BME280;4185;41.506;24.938;2023-03-16T06:24:27;92554.44;;;5.11;81.65
8294;BME280;4185;41.506;24.938;2023-03-16T06:26:54;92559.91;;;5.17;81.37
8294;BME280;4185;41.506;24.938;2023-03-16T06:29:20;92561.38;;;5.18;81.11
8294;BME280;4185;41.506;24.938;2023-03-16T06:31:48;92554.59;;;5.22;81.21
8294;BME280;4185;41.506;24.938;2023-03-16T06:34:17;92560.00;;;5.28;81.44
8294;BME280;4185;41.506;24.938;2023-03-16T06:36:44;92554.63;;;5.28;81.53
8294;BME280;4185;41.506;24.938;2023-03-16T06:39:10;92566.47;;;5.36;81.42
8294;BME280;4185;41.506;24.938;2023-03-16T06:41:39;92578.72;;;5.37;80.73
8294;BME280;4185;41.506;24.938;2023-03-16T06:44:08;92569.44;;;5.38;80.96
8294;BME280;4185;41.506;24.938;2023-03-16T06:46:36;92585.84;;;5.40;80.60
8294;BME280;4185;41.506;24.938;2023-03-16T06:49:05;92589.06;;;5.44;81.61
8294;BME280;4185;41.506;24.938;2023-03-16T06:51:31;92583.78;;;5.55;80.85
8294;BME280;4185;41.506;24.938;2023-03-16T06:53:58;92585.06;;;5.59;81.17
8294;BME280;4185;41.506;24.938;2023-03-16T06:56:25;92591.50;;;5.67;80.37
8294;BME280;4185;41.506;24.938;2023-03-16T06:58:52;92590.34;;;5.74;80.13
8294;BME280;4185;41.506;24.938;2023-03-16T07:01:19;92592.34;;;5.79;79.77
8294;BME280;4185;41.506;24.938;2023-03-16T07:03:47;92590.97;;;5.83;79.97
8294;BME280;4185;41.506;24.938;2023-03-16T07:06:15;92590.72;;;5.87;80.19
8294;BME280;4185;41.506;24.938;2023-03-16T07:08:42;92591.53;;;5.93;80.13
8294;BME280;4185;41.506;24.938;2023-03-16T07:11:09;92598.91;;;5.98;80.15
8294;BME280;4185;41.506;24.938;2023-03-16T07:13:36;92603.13;;;6.04;79.75
8294;BME280;4185;41.506;24.938;2023-03-16T07:16:04;92598.75;;;6.07;79.49
8294;BME280;4185;41.506;24.938;2023-03-16T07:18:31;92601.94;;;6.11;79.51
8294;BME280;4185;41.506;24.938;2023-03-16T07:20:58;92602.69;;;6.11;78.69
8294;BME280;4185;41.506;24.938;2023-03-16T07:23:26;92607.81;;;6.09;78.94
8294;BME280;4185;41.506;24.938;2023-03-16T07:25:53;92611.06;;;6.13;78.12
8294;BME280;4185;41.506;24.938;2023-03-16T07:28:20;92606.91;;;6.18;78.33
8294;BME280;4185;41.506;24.938;2023-03-16T07:30:47;92614.56;;;6.25;78.16
8294;BME280;4185;41.506;24.938;2023-03-16T07:33:14;92614.31;;;6.23;78.28
8294;BME280;4185;41.506;24.938;2023-03-16T07:35:41;92618.94;;;6.22;77.96
8294;BME280;4185;41.506;24.938;2023-03-16T07:38:08;92619.97;;;6.25;77.42
8294;BME280;4185;41.506;24.938;2023-03-16T07:40:38;92613.88;;;6.30;77.41
8294;BME280;4185;41.506;24.938;2023-03-16T07:43:05;92614.22;;;6.43;77.81
8294;BME280;4185;41.506;24.938;2023-03-16T07:45:31;92615.22;;;6.51;77.83
8294;BME280;4185;41.506;24.938;2023-03-16T07:47:58;92615.28;;;6.57;77.85
8294;BME280;4185;41.506;24.938;2023-03-16T07:50:26;92623.47;;;6.68;76.85
8294;BME280;4185;41.506;24.938;2023-03-16T07:52:53;92619.59;;;6.80;75.98
8294;BME280;4185;41.506;24.938;2023-03-16T07:55:19;92626.50;;;6.86;76.61
8294;BME280;4185;41.506;24.938;2023-03-16T07:57:48;92625.34;;;6.98;75.98
8294;BME280;4185;41.506;24.938;2023-03-16T08:00:15;92633.50;;;7.09;75.61
8294;BME280;4185;41.506;24.938;2023-03-16T08:02:44;92633.31;;;7.18;75.38
8294;BME280;4185;41.506;24.938;2023-03-16T08:05:11;92624.97;;;7.22;75.33
8294;BME280;4185;41.506;24.938;2023-03-16T08:07:39;92625.75;;;7.33;74.59
8294;BME280;4185;41.506;24.938;2023-03-16T08:10:07;92624.31;;;7.43;74.66
8294;BME280;4185;41.506;24.938;2023-03-16T08:12:34;92623.78;;;7.39;74.41
8294;BME280;4185;41.506;24.938;2023-03-16T08:15:05;92628.75;;;7.47;73.88
8294;BME280;4185;41.506;24.938;2023-03-16T08:17:32;92625.53;;;7.48;73.37
8294;BME280;4185;41.506;24.938;2023-03-16T08:19:59;92627.81;;;7.61;73.86
8294;BME280;4185;41.506;24.938;2023-03-16T08:22:25;92623.91;;;7.73;73.05
8294;BME280;4185;41.506;24.938;2023-03-16T08:24:52;92623.19;;;7.83;72.98
8294;BME280;4185;41.506;24.938;2023-03-16T08:27:19;92626.66;;;7.95;72.92
8294;BME280;4185;41.506;24.938;2023-03-16T08:29:50;92631.81;;;8.04;72.14
8294;BME280;4185;41.506;24.938;2023-03-16T08:32:19;92631.34;;;8.11;71.54
8294;BME280;4185;41.506;24.938;2023-03-16T08:34:46;92628.41;;;8.20;71.21
8294;BME280;4185;41.506;24.938;2023-03-16T08:37:13;92628.41;;;8.25;70.29
8294;BME280;4185;41.506;24.938;2023-03-16T08:39:41;92631.13;;;8.31;70.18
8294;BME280;4185;41.506;24.938;2023-03-16T08:42:08;92631.38;;;8.33;69.85
8294;BME280;4185;41.506;24.938;2023-03-16T08:44:35;92631.38;;;8.33;69.23
8294;BME280;4185;41.506;24.938;2023-03-16T08:47:02;92625.75;;;8.36;69.93
8294;BME280;4185;41.506;24.938;2023-03-16T08:49:32;92629.91;;;8.43;69.42
8294;BME280;4185;41.506;24.938;2023-03-16T08:51:59;92634.84;;;8.50;69.41
8294;BME280;4185;41.506;24.938;2023-03-16T08:54:26;92628.19;;;8.56;67.93
8294;BME280;4185;41.506;24.938;2023-03-16T08:56:52;92643.19;;;8.63;67.99
8294;BME280;4185;41.506;24.938;2023-03-16T08:59:19;92639.75;;;8.68;67.96
8294;BME280;4185;41.506;24.938;2023-03-16T09:01:46;92643.91;;;8.75;67.92
8294;BME280;4185;41.506;24.938;2023-03-16T09:04:13;92643.91;;;8.75;66.44
8294;BME280;4185;41.506;24.938;2023-03-16T09:06:41;92635.81;;;8.69;66.63
8294;BME280;4185;41.506;24.938;2023-03-16T09:09:08;92642.19;;;8.66;66.32
8294;BME280;4185;41.506;24.938;2023-03-16T09:11:35;92641.72;;;8.68;66.23
8294;BME280;4185;41.506;24.938;2023-03-16T09:14:02;92638.03;;;8.71;65.42
8294;BME280;4185;41.506;24.938;2023-03-16T09:16:28;92648.13;;;8.76;65.52
8294;BME280;4185;41.506;24.938;2023-03-16T09:18:56;92650.06;;;8.75;65.09
8294;BME280;4185;41.506;24.938;2023-03-16T09:21:23;92656.94;;;8.76;65.16
8294;BME280;4185;41.506;24.938;2023-03-16T09:23:51;92645.16;;;8.79;65.20
8294;BME280;4185;41.506;24.938;2023-03-16T09:26:19;92655.00;;;8.82;65.18
8294;BME280;4185;41.506;24.938;2023-03-16T09:28:46;92657.69;;;8.88;64.92
8294;BME280;4185;41.506;24.938;2023-03-16T09:31:16;92651.03;;;8.94;64.53
8294;BME280;4185;41.506;24.938;2023-03-16T09:33:43;92651.75;;;9.00;64.66
8294;BME280;4185;41.506;24.938;2023-03-16T09:36:10;92659.63;;;9.09;64.48
8294;BME280;4185;41.506;24.938;2023-03-16T09:38:37;92658.13;;;9.19;63.77
8294;BME280;4185;41.506;24.938;2023-03-16T09:41:09;92655.41;;;9.19;63.97
8294;BME280;4185;41.506;24.938;2023-03-16T09:43:44;92658.63;;;9.23;63.97
8294;BME280;4185;41.506;24.938;2023-03-16T09:46:21;92661.31;;;9.23;63.36
8294;BME280;4185;41.506;24.938;2023-03-16T09:48:50;92663.03;;;9.21;63.10
8294;BME280;4185;41.506;24.938;2023-03-16T09:51:20;92653.22;;;9.18;62.99
8294;BME280;4185;41.506;24.938;2023-03-16T09:53:53;92668.72;;;9.17;63.18
8294;BME280;4185;41.506;24.938;2023-03-16T09:56:29;92662.53;;;9.22;62.88
8294;BME280;4185;41.506;24.938;2023-03-16T09:58:59;92667.22;;;9.22;62.80
8294;BME280;4185;41.506;24.938;2023-03-16T10:01:35;92672.38;;;9.25;63.01
8294;BME280;4185;41.506;24.938;2023-03-16T10:04:13;92674.84;;;9.29;62.95
8294;BME280;4185;41.506;24.938;2023-03-16T10:06:47;92678.03;;;9.27;62.49
8294;BME280;4185;41.506;24.938;2023-03-16T10:09:27;92684.47;;;9.24;61.90
8294;BME280;4185;41.506;24.938;2023-03-16T10:11:59;92680.50;;;9.25;62.39
8294;BME280;4185;41.506;24.938;2023-03-16T10:14:32;92678.03;;;9.27;62.11
8294;BME280;4185;41.506;24.938;2023-03-16T10:17:06;92684.72;;;9.32;61.20
8294;BME280;4185;41.506;24.938;2023-03-16T10:19:38;92684.44;;;9.35;61.55
8294;BME280;4185;41.506;24.938;2023-03-16T10:22:15;92684.66;;;9.43;61.82
8294;BME280;4185;41.506;24.938;2023-03-16T10:24:52;92683.41;;;9.49;60.63
8294;BME280;4185;41.506;24.938;2023-03-16T10:27:27;92684.91;;;9.50;60.99
8294;BME280;4185;41.506;24.938;2023-03-16T10:29:54;92681.44;;;9.55;60.78
8294;BME280;4185;41.506;24.938;2023-03-16T10:32:22;92687.56;;;9.56;60.35
8294;BME280;4185;41.506;24.938;2023-03-16T10:34:57;92689.06;;;9.57;60.78
8294;BME280;4185;41.506;24.938;2023-03-16T10:37:28;92691.53;;;9.60;60.68
8294;BME280;4185;41.506;24.938;2023-03-16T10:39:57;92691.72;;;9.62;59.29
8294;BME280;4185;41.506;24.938;2023-03-16T10:42:26;92694.94;;;9.61;60.00
8294;BME280;4185;41.506;24.938;2023-03-16T10:44:56;92698.91;;;9.60;59.65
8294;BME280;4185;41.506;24.938;2023-03-16T10:47:28;92691.72;;;9.62;59.88
8294;BME280;4185;41.506;24.938;2023-03-16T10:49:56;92694.19;;;9.66;59.64
8294;BME280;4185;41.506;24.938;2023-03-16T10:52:30;92693.69;;;9.67;59.48
8294;BME280;4185;41.506;24.938;2023-03-16T10:55:00;92695.19;;;9.68;58.98
8294;BME280;4185;41.506;24.938;2023-03-16T10:57:32;92686.28;;;9.73;59.13
8294;BME280;4185;41.506;24.938;2023-03-16T11:00:05;92695.13;;;9.79;58.38
8294;BME280;4185;41.506;24.938;2023-03-16T11:02:41;92705.03;;;9.71;58.86
8294;BME280;4185;41.506;24.938;2023-03-16T11:05:13;92700.09;;;9.75;58.85
8294;BME280;4185;41.506;24.938;2023-03-16T11:07:47;92696.63;;;9.80;58.53
8294;BME280;4185;41.506;24.938;2023-03-16T11:10:25;92693.59;;;9.89;58.40
8294;BME280;4185;41.506;24.938;2023-03-16T11:13:00;92694.56;;;9.98;57.57
8294;BME280;4185;41.506;24.938;2023-03-16T11:15:35;92689.59;;;10.02;57.88
8294;BME280;4185;41.506;24.938;2023-03-16T11:18:03;92698.25;;;10.00;57.65
8294;BME280;4185;41.506;24.938;2023-03-16T11:20:31;92695.78;;;9.97;57.68
8294;BME280;4185;41.506;24.938;2023-03-16T11:22:59;92705.41;;;9.98;56.89
8294;BME280;4185;41.506;24.938;2023-03-16T11:25:28;92694.56;;;9.98;56.86
8294;BME280;4185;41.506;24.938;2023-03-16T11:28:08;92698.25;;;9.95;57.15
8294;BME280;4185;41.506;24.938;2023-03-16T11:30:40;92689.66;;;9.91;56.23
8294;BME280;4185;41.506;24.938;2023-03-16T11:33:11;92693.16;;;9.85;56.44
8294;BME280;4185;41.506;24.938;2023-03-16T11:35:46;92686.72;;;9.88;56.44
8294;BME280;4185;41.506;24.938;2023-03-16T11:38:18;92694.09;;;9.94;55.79
8294;BME280;4185;41.506;24.938;2023-03-16T11:40:54;92680.50;;;9.99;55.59
8294;BME280;4185;41.506;24.938;2023-03-16T11:43:48;92688.38;;;10.08;55.69
8294;BME280;4185;41.506;24.938;2023-03-16T11:46:19;92680.69;;;10.18;55.17
8294;BME280;4185;41.506;24.938;2023-03-16T11:48:59;92688.97;;;10.31;55.38
8294;BME280;4185;41.506;24.938;2023-03-16T11:51:42;92696.34;;;10.36;55.29
8294;BME280;4185;41.506;24.938;2023-03-16T11:54:26;92693.59;;;10.41;54.84
8294;BME280;4185;41.506;24.938;2023-03-16T11:57:01;92697.28;;;10.44;54.08
8294;BME280;4185;41.506;24.938;2023-03-16T11:59:47;92693.63;;;10.36;53.80
8294;BME280;4185;41.506;24.938;2023-03-16T12:02:35;92691.97;;;10.22;54.05
8294;BME280;4185;41.506;24.938;2023-03-16T12:05:22;92693.31;;;10.04;54.28
8294;BME280;4185;41.506;24.938;2023-03-16T12:08:04;92696.03;;;9.99;54.17
8294;BME280;4185;41.506;24.938;2023-03-16T12:10:39;92703.94;;;9.97;54.51
8294;BME280;4185;41.506;24.938;2023-03-16T12:13:18;92698.75;;;9.99;53.77
8294;BME280;4185;41.506;24.938;2023-03-16T12:15:58;92702.72;;;9.98;54.65
8294;BME280;4185;41.506;24.938;2023-03-16T12:18:35;92702.97;;;9.94;54.23
8294;BME280;4185;41.506;24.938;2023-03-16T12:21:10;92705.69;;;9.94;54.29
8294;BME280;4185;41.506;24.938;2023-03-16T12:23:53;92704.94;;;9.94;54.62
8294;BME280;4185;41.506;24.938;2023-03-16T12:26:25;92718.75;;;9.90;54.28
8294;BME280;4185;41.506;24.938;2023-03-16T12:28:55;92702.47;;;9.90;54.52
8294;BME280;4185;41.506;24.938;2023-03-16T12:31:28;92716.03;;;9.90;54.47
8294;BME280;4185;41.506;24.938;2023-03-16T12:34:05;92708.66;;;9.85;54.38
8294;BME280;4185;41.506;24.938;2023-03-16T12:37:12;92709.69;;;9.82;54.19
8294;BME280;4185;41.506;24.938;2023-03-16T12:39:55;92714.34;;;9.81;54.26
8294;BME280;4185;41.506;24.938;2023-03-16T12:42:55;92714.09;;;9.79;54.59
8294;BME280;4185;41.506;24.938;2023-03-16T12:45:34;92708.94;;;9.81;54.74
8294;BME280;4185;41.506;24.938;2023-03-16T12:48:10;92718.28;;;9.86;55.22
8294;BME280;4185;41.506;24.938;2023-03-16T12:50:50;92721.72;;;9.86;55.24
8294;BME280;4185;41.506;24.938;2023-03-16T12:53:39;92718.78;;;9.84;54.98
8294;BME280;4185;41.506;24.938;2023-03-16T12:56:08;92720.25;;;9.85;54.91
8294;BME280;4185;41.506;24.938;2023-03-16T12:58:40;92726.69;;;9.82;54.70
8294;BME280;4185;41.506;24.938;2023-03-16T13:01:10;92735.56;;;9.77;54.56
8294;BME280;4185;41.506;24.938;2023-03-16T13:03:40;92739.25;;;9.80;54.93
8294;BME280;4185;41.506;24.938;2023-03-16T13:06:16;92739.78;;;9.73;55.13
8294;BME280;4185;41.506;24.938;2023-03-16T13:08:49;92745.44;;;9.69;55.00
8294;BME280;4185;41.506;24.938;2023-03-16T13:11:17;92748.91;;;9.64;55.15
8294;BME280;4185;41.506;24.938;2023-03-16T13:13:50;92749.91;;;9.61;55.40
8294;BME280;4185;41.506;24.938;2023-03-16T13:16:25;92751.38;;;9.62;55.24
8294;BME280;4185;41.506;24.938;2023-03-16T13:18:54;92761.50;;;9.62;54.63
8294;BME280;4185;41.506;24.938;2023-03-16T13:21:33;92764.72;;;9.55;54.96
8294;BME280;4185;41.506;24.938;2023-03-16T13:24:13;92759.31;;;9.49;55.37
8294;BME280;4185;41.506;24.938;2023-03-16T13:26:48;92766.47;;;9.41;55.27
8294;BME280;4185;41.506;24.938;2023-03-16T13:29:23;92770.19;;;9.38;56.20
8294;BME280;4185;41.506;24.938;2023-03-16T13:31:52;92768.44;;;9.35;55.66
8294;BME280;4185;41.506;24.938;2023-03-16T13:34:23;92770.19;;;9.33;55.85
8294;BME280;4185;41.506;24.938;2023-03-16T13:36:54;92777.06;;;9.34;57.40
8294;BME280;4185;41.506;24.938;2023-03-16T13:39:23;92774.84;;;9.38;56.87